Time;durP1;ratioP1;P1;durP2;ratioP2;P2;SDS_P1;SDS_P2;PMS_P1;PMS_P2;Temp;Humidity;BMP_temperature;BMP_pressure;BME280_temperature;BME280_humidity;BME280_pressure;Samples;Min_cycle;Max_cycle;Signal;HPM_P1;HPM_P2
2021/09/06 00:01:09;;;;;;;15.30;7.90;;;;;;;9.77;91.39;101659.27;110855;1206;61139;-74
2021/09/06 00:03:36;;;;;;;12.50;7.20;;;;;;;9.75;90.97;101658.94;110837;1200;70020;-73
2021/09/06 00:06:03;;;;;;;10.80;6.40;;;;;;;9.73;90.89;101658.32;110742;1208;72697;-75
2021/09/06 00:08:29;;;;;;;11.20;7.00;;;;;;;9.70;90.91;101657.68;110846;1199;61535;-76
2021/09/06 00:11:05;;;;;;;12.70;6.10;;;;;;;9.69;91.36;101655.65;110758;1207;61113;-74
2021/09/06 00:13:32;;;;;;;13.90;7.40;;;;;;;9.69;90.92;101655.02;110837;1207;74532;-75
2021/09/06 00:15:59;;;;;;;17.30;8.10;;;;;;;9.64;91.14;101652.41;110859;1206;72275;-74
2021/09/06 00:18:27;;;;;;;17.90;9.30;;;;;;;9.61;91.22;101650.41;111103;1208;74971;-74
2021/09/06 00:20:58;;;;;;;17.70;9.10;;;;;;;9.57;91.22;101652.73;110803;1206;61127;-74
2021/09/06 00:23:25;;;;;;;18.10;9.50;;;;;;;9.51;91.20;101651.73;110733;1208;61133;-74
2021/09/06 00:25:52;;;;;;;18.90;10.30;;;;;;;9.49;91.64;101655.83;110812;1208;75782;-76
2021/09/06 00:28:18;;;;;;;19.30;11.00;;;;;;;9.46;91.87;101650.73;110860;1199;71203;-75
2021/09/06 00:30:59;;;;;;;19.00;9.80;;;;;;;9.47;92.75;101651.44;110842;1207;72218;-74
2021/09/06 00:33:26;;;;;;;19.70;10.90;;;;;;;9.47;92.39;101653.05;110942;1209;63477;-74
2021/09/06 00:35:53;;;;;;;17.10;10.20;;;;;;;9.48;92.73;101655.21;110762;1200;61027;-75
2021/09/06 00:38:20;;;;;;;17.00;9.80;;;;;;;9.50;92.67;101659.08;110793;1207;75795;-75
2021/09/06 00:40:48;;;;;;;20.20;11.60;;;;;;;9.45;92.27;101657.80;110789;1206;70986;-75
2021/09/06 00:43:19;;;;;;;17.50;10.20;;;;;;;9.43;92.83;101659.20;111060;1207;74045;-74
2021/09/06 00:45:48;;;;;;;17.60;10.50;;;;;;;9.43;93.50;101655.83;110730;1203;62113;-74
2021/09/06 00:48:17;;;;;;;17.10;10.40;;;;;;;9.46;93.57;101655.54;110793;1207;61115;-74
2021/09/06 00:50:47;;;;;;;17.60;10.20;;;;;;;9.46;93.17;101649.97;111199;1207;74575;-74
2021/09/06 00:53:15;;;;;;;17.70;10.40;;;;;;;9.44;92.63;101652.59;110725;1208;71372;-74
2021/09/06 00:55:42;;;;;;;20.60;9.20;;;;;;;9.42;92.66;101651.36;110768;1208;72528;-73
2021/09/06 00:58:10;;;;;;;19.90;10.80;;;;;;;9.38;92.31;101650.65;110773;1206;61722;-74
2021/09/06 01:00:36;;;;;;;18.60;9.50;;;;;;;9.35;92.46;101651.21;110831;1207;61262;-75
2021/09/06 01:03:03;;;;;;;15.90;9.40;;;;;;;9.30;92.36;101651.16;110701;1209;74534;-74
2021/09/06 01:05:30;;;;;;;15.00;8.20;;;;;;;9.27;92.74;101652.55;110830;1207;71019;-74
2021/09/06 01:07:57;;;;;;;21.30;10.30;;;;;;;9.23;92.68;101651.36;110638;1207;72516;-74
2021/09/06 01:10:24;;;;;;;15.70;8.00;;;;;;;9.19;92.98;101649.39;110775;1207;61000;-74
2021/09/06 01:12:51;;;;;;;12.70;7.20;;;;;;;9.13;93.14;101643.46;110866;1206;61098;-74
2021/09/06 01:15:17;;;;;;;12.70;7.20;;;;;;;9.08;93.15;101648.17;110988;1199;74471;-75
2021/09/06 01:17:45;;;;;;;15.50;9.10;;;;;;;9.03;93.48;101645.82;110994;1199;71736;-74
2021/09/06 01:20:12;;;;;;;14.40;8.00;;;;;;;8.98;93.37;101649.72;110797;1207;73589;-74
2021/09/06 01:22:39;;;;;;;14.10;7.80;;;;;;;8.96;93.68;101650.41;111054;1199;61756;-74
2021/09/06 01:25:09;;;;;;;17.60;8.30;;;;;;;8.93;93.27;101654.42;110816;1207;61073;-74
2021/09/06 01:27:45;;;;;;;13.80;7.20;;;;;;;8.90;93.74;101651.34;110864;1200;74274;-74
2021/09/06 01:30:13;;;;;;;14.00;7.60;;;;;;;8.88;93.67;101648.04;110906;1208;71048;-75
2021/09/06 01:32:39;;;;;;;8.40;5.40;;;;;;;8.89;94.32;101650.70;110798;1207;72618;-75
2021/09/06 01:35:07;;;;;;;10.50;6.80;;;;;;;8.89;94.03;101650.79;110854;1207;61129;-75
2021/09/06 01:37:37;;;;;;;7.50;4.50;;;;;;;8.86;94.05;101648.60;110844;1200;60954;-74
2021/09/06 01:40:04;;;;;;;11.00;6.20;;;;;;;8.82;94.11;101645.05;110800;1206;73584;-74
2021/09/06 01:42:31;;;;;;;14.00;7.50;;;;;;;8.79;94.53;101641.59;110811;1206;71910;-74
2021/09/06 01:45:04;;;;;;;6.40;4.40;;;;;;;8.77;94.25;101640.38;111300;1206;61141;-75
2021/09/06 01:47:31;;;;;;;7.70;5.20;;;;;;;8.73;94.58;101649.27;110883;1206;62021;-74
2021/09/06 01:50:03;;;;;;;10.30;5.70;;;;;;;8.67;94.73;101645.89;110697;1206;61248;-74
2021/09/06 01:52:31;;;;;;;10.60;5.80;;;;;;;8.60;94.53;101644.55;110746;1203;75028;-74
2021/09/06 01:54:57;;;;;;;14.00;6.90;;;;;;;8.54;94.57;101640.45;110836;1206;61089;-74
2021/09/06 01:57:24;;;;;;;11.30;6.60;;;;;;;8.51;94.63;101639.37;110845;1206;61077;-75
2021/09/06 01:59:50;;;;;;;11.50;7.00;;;;;;;8.49;94.75;101644.98;110783;1206;61145;-75
2021/09/06 02:02:17;;;;;;;9.20;5.60;;;;;;;8.48;94.86;101642.45;110833;1206;61503;-75
2021/09/06 02:04:44;;;;;;;9.30;5.40;;;;;;;8.47;95.13;101643.63;110788;1200;61138;-75
2021/09/06 02:07:10;;;;;;;12.90;7.40;;;;;;;8.47;95.52;101640.29;110749;1206;61110;-74
2021/09/06 02:09:44;;;;;;;11.90;7.30;;;;;;;8.50;96.03;101646.73;110810;1201;61208;-74
2021/09/06 02:12:11;;;;;;;15.80;7.80;;;;;;;8.53;96.05;101647.14;110884;1206;62047;-74
2021/09/06 02:14:37;;;;;;;12.50;7.20;;;;;;;8.56;96.23;101648.05;110770;1199;61147;-75
2021/09/06 02:17:04;;;;;;;12.70;6.80;;;;;;;8.61;96.69;101646.60;110789;1206;61120;-75
2021/09/06 02:19:31;;;;;;;14.50;8.20;;;;;;;8.65;96.35;101645.39;110876;1200;61081;-74
2021/09/06 02:21:58;;;;;;;13.20;7.80;;;;;;;8.69;96.55;101645.48;110782;1206;73558;-74
2021/09/06 02:24:26;;;;;;;16.00;9.40;;;;;;;8.74;97.08;101645.95;110827;1206;61432;-74
2021/09/06 02:26:52;;;;;;;15.30;9.50;;;;;;;8.81;97.29;101646.90;110809;1200;61102;-74
2021/09/06 02:29:19;;;;;;;13.70;8.70;;;;;;;8.89;97.32;101651.66;110821;1208;74544;-74
2021/09/06 02:31:45;;;;;;;16.30;9.00;;;;;;;8.93;97.35;101644.88;110777;1208;61082;-74
2021/09/06 02:34:12;;;;;;;15.80;8.20;;;;;;;8.99;96.73;101649.16;110826;1206;60998;-74
2021/09/06 02:36:38;;;;;;;15.80;8.80;;;;;;;9.00;95.97;101650.30;110832;1200;61239;-74
2021/09/06 02:39:05;;;;;;;14.10;8.50;;;;;;;9.02;96.34;101653.27;110791;1206;61064;-73
2021/09/06 02:41:32;;;;;;;15.90;9.10;;;;;;;9.05;96.05;101653.91;110905;1206;74592;-74
2021/09/06 02:43:59;;;;;;;12.50;7.60;;;;;;;9.05;95.92;101657.41;110792;1206;70701;-73
2021/09/06 02:46:26;;;;;;;10.80;6.00;;;;;;;9.03;95.26;101659.74;110842;1206;73670;-76
2021/09/06 02:48:52;;;;;;;7.00;4.20;;;;;;;8.98;95.27;101656.95;110816;1206;61540;-74
2021/09/06 02:51:18;;;;;;;10.50;4.90;;;;;;;8.92;95.31;101646.58;110832;1206;61598;-74
2021/09/06 02:53:45;;;;;;;8.90;4.70;;;;;;;8.84;95.70;101636.92;110857;1207;61266;-74
2021/09/06 02:56:12;;;;;;;9.50;4.70;;;;;;;8.77;95.83;101635.59;110818;1206;61094;-74
2021/09/06 02:58:38;;;;;;;11.10;6.20;;;;;;;8.72;96.13;101637.13;110890;1206;61137;-75
2021/09/06 03:01:05;;;;;;;12.90;6.30;;;;;;;8.70;96.23;101630.08;110792;1207;61127;-74
2021/09/06 03:03:31;;;;;;;6.50;3.90;;;;;;;8.69;96.23;101632.45;110980;1206;61025;-76
2021/09/06 03:05:59;;;;;;;11.90;6.10;;;;;;;8.67;96.48;101628.08;110827;1206;74814;-75
2021/09/06 03:08:25;;;;;;;10.50;6.30;;;;;;;8.65;96.79;101631.30;110858;1206;72069;-75
2021/09/06 03:10:52;;;;;;;11.30;6.10;;;;;;;8.66;96.91;101633.86;110823;1206;61155;-75
2021/09/06 03:13:19;;;;;;;9.30;5.70;;;;;;;8.66;97.24;101634.53;110880;1200;61063;-75
2021/09/06 03:15:45;;;;;;;10.30;6.00;;;;;;;8.71;97.60;101635.14;110836;1206;61501;-75
2021/09/06 03:18:18;;;;;;;10.50;6.70;;;;;;;8.75;97.72;101634.73;110816;1206;61076;-75
2021/09/06 03:21:17;;;;;;;12.40;6.50;;;;;;;8.85;98.37;101635.05;110697;1209;70583;-75
2021/09/06 03:23:44;;;;;;;7.40;4.20;;;;;;;8.89;97.51;101634.36;110834;1207;71265;-74
2021/09/06 03:26:10;;;;;;;8.80;4.30;;;;;;;8.88;97.57;101638.30;110797;1200;61078;-74
2021/09/06 03:28:37;;;;;;;7.20;4.40;;;;;;;8.87;97.06;101637.31;110862;1206;61089;-75
2021/09/06 03:31:03;;;;;;;6.30;3.40;;;;;;;8.85;96.86;101635.45;110881;1206;74607;-74
2021/09/06 03:33:30;;;;;;;8.30;4.90;;;;;;;8.81;97.21;101631.36;110814;1207;70950;-75
2021/09/06 03:36:03;;;;;;;11.50;5.90;;;;;;;8.78;97.31;101628.80;110830;1206;61087;-75
2021/09/06 03:38:29;;;;;;;10.70;5.20;;;;;;;8.77;96.82;101627.85;110966;1202;61881;-75
2021/09/06 03:40:56;;;;;;;9.20;6.20;;;;;;;8.77;97.14;101629.07;110855;1206;61650;-75
2021/09/06 03:43:23;;;;;;;9.40;5.70;;;;;;;8.76;97.26;101631.47;110817;1206;61278;-75
2021/09/06 03:45:49;;;;;;;10.30;5.40;;;;;;;8.75;97.02;101635.25;110819;1206;71046;-75
2021/09/06 03:48:22;;;;;;;12.00;6.10;;;;;;;8.76;97.28;101632.05;110836;1206;72775;-75
2021/09/06 03:50:49;;;;;;;10.00;5.20;;;;;;;8.77;97.29;101629.23;110905;1206;61633;-75
2021/09/06 03:53:15;;;;;;;9.00;5.10;;;;;;;8.80;97.47;101632.58;110752;1206;61002;-74
2021/09/06 03:55:42;;;;;;;10.00;5.50;;;;;;;8.83;97.71;101633.45;110849;1206;74553;-74
2021/09/06 03:58:08;;;;;;;8.80;5.40;;;;;;;8.90;98.20;101634.38;110779;1200;61088;-75
2021/09/06 04:00:35;;;;;;;8.10;4.70;;;;;;;8.92;97.33;101636.71;110861;1206;61474;-74
2021/09/06 04:03:02;;;;;;;9.70;6.00;;;;;;;8.92;96.84;101636.02;110797;1206;61177;-76
2021/09/06 04:05:29;;;;;;;10.80;6.70;;;;;;;8.92;96.83;101639.32;110811;1206;61536;-76
2021/09/06 04:07:55;;;;;;;11.70;6.10;;;;;;;8.92;97.12;101641.79;110888;1206;61094;-75
2021/09/06 04:10:21;;;;;;;9.50;5.10;;;;;;;8.93;96.87;101644.58;110851;1206;61472;-75
2021/09/06 04:12:48;;;;;;;8.50;4.90;;;;;;;8.96;97.13;101647.48;110870;1207;62465;-74
2021/09/06 04:15:14;;;;;;;7.30;4.30;;;;;;;8.98;97.01;101645.65;110838;1206;61818;-75
2021/09/06 04:17:43;;;;;;;9.60;5.10;;;;;;;9.02;97.22;101646.82;110820;1207;61010;-74
2021/09/06 04:20:21;;;;;;;9.20;4.90;;;;;;;9.03;96.88;101650.55;110771;1208;74521;-75
2021/09/06 04:22:48;;;;;;;12.50;5.90;;;;;;;9.03;96.47;101649.99;110776;1207;71157;-75
2021/09/06 04:25:15;;;;;;;9.30;4.80;;;;;;;9.05;96.72;101656.02;111195;1206;73583;-74
2021/09/06 04:27:41;;;;;;;8.90;5.30;;;;;;;9.03;96.24;101656.20;110881;1208;61140;-77
2021/09/06 04:30:08;;;;;;;10.10;5.40;;;;;;;8.99;95.99;101659.74;110790;1207;60655;-75
2021/09/06 04:32:34;;;;;;;10.40;5.40;;;;;;;8.95;95.97;101662.38;110924;1199;74461;-76
2021/09/06 04:35:01;;;;;;;8.20;5.10;;;;;;;8.92;95.97;101663.48;110950;1206;61565;-76
2021/09/06 04:37:36;;;;;;;6.40;3.60;;;;;;;8.89;96.25;101666.11;110918;1206;72562;-76
2021/09/06 04:40:05;;;;;;;6.00;3.80;;;;;;;8.86;96.13;101668.16;111407;1206;62087;-75
2021/09/06 04:42:31;;;;;;;6.30;3.80;;;;;;;8.84;96.66;101667.64;111029;1199;61026;-76
2021/09/06 04:44:58;;;;;;;6.30;3.30;;;;;;;8.81;96.39;101667.34;110450;1206;61577;-75
2021/09/06 04:47:24;;;;;;;7.50;4.20;;;;;;;8.80;96.64;101670.46;110802;1199;61692;-75
2021/09/06 04:49:51;;;;;;;6.40;3.60;;;;;;;8.79;96.80;101670.34;110846;1200;61094;-75
2021/09/06 04:52:26;;;;;;;5.80;3.70;;;;;;;8.79;97.11;101670.73;110722;1206;61881;-76
2021/09/06 04:54:53;;;;;;;8.00;4.00;;;;;;;8.78;97.10;101665.99;110734;1208;61054;-75
2021/09/06 04:57:19;;;;;;;7.10;3.60;;;;;;;8.77;97.00;101670.48;110829;1207;61995;-75
2021/09/06 04:59:46;;;;;;;8.30;4.30;;;;;;;8.75;96.99;101676.36;110852;1208;72057;-75
2021/09/06 05:02:12;;;;;;;5.40;3.80;;;;;;;8.74;96.87;101681.07;110872;1207;61101;-75
2021/09/06 05:04:53;;;;;;;6.40;3.90;;;;;;;8.74;97.17;101681.70;110820;1207;61867;-75
2021/09/06 05:07:19;;;;;;;6.80;3.50;;;;;;;8.76;97.49;101680.70;111167;1207;61049;-77
2021/09/06 05:09:46;;;;;;;3.70;2.60;;;;;;;8.74;97.46;101677.67;110938;1200;61097;-75
2021/09/06 05:12:14;;;;;;;5.20;3.20;;;;;;;8.71;97.32;101683.04;111164;1207;70970;-78
2021/09/06 05:14:41;;;;;;;4.60;2.50;;;;;;;8.68;97.34;101680.15;111316;1199;76155;-78
2021/09/06 05:17:12;;;;;;;6.80;3.90;;;;;;;8.72;97.81;101684.08;111079;1207;62655;-80
2021/09/06 05:19:38;;;;;;;6.80;3.90;;;;;;;8.74;97.72;101684.27;110889;1200;61165;-79
2021/09/06 05:22:05;;;;;;;6.10;3.60;;;;;;;8.74;97.32;101685.98;111119;1200;61020;-79
2021/09/06 05:24:31;;;;;;;6.10;2.70;;;;;;;8.75;97.48;101684.65;110996;1207;70895;-78
2021/09/06 05:26:58;;;;;;;5.70;2.70;;;;;;;8.79;97.38;101690.31;110966;1203;74478;-78
2021/09/06 05:29:25;;;;;;;5.30;3.30;;;;;;;8.82;97.46;101694.60;110868;1200;61142;-78
2021/09/06 05:31:51;;;;;;;5.10;3.20;;;;;;;8.86;97.18;101694.10;110819;1203;61572;-78
2021/09/06 05:34:18;;;;;;;5.10;3.20;;;;;;;8.91;97.48;101697.16;111023;1207;62219;-80
2021/09/06 05:36:44;;;;;;;6.60;2.70;;;;;;;8.92;97.22;101696.66;110953;1207;61095;-78
2021/09/06 05:39:11;;;;;;;4.60;2.20;;;;;;;8.91;96.86;101698.38;111320;1198;125008;-74
2021/09/06 05:41:38;;;;;;;5.40;3.00;;;;;;;8.92;96.83;101701.08;110580;1205;61089;-74
2021/09/06 05:44:05;;;;;;;3.30;2.10;;;;;;;8.94;96.93;101700.70;110653;1205;61082;-75
2021/09/06 05:46:32;;;;;;;4.10;2.30;;;;;;;8.97;96.91;101697.50;110624;1205;74556;-74
2021/09/06 05:48:58;;;;;;;3.80;2.30;;;;;;;8.99;96.86;101699.23;110387;1206;71151;-75
2021/09/06 05:51:25;;;;;;;4.40;2.00;;;;;;;9.00;96.65;101702.02;110527;1206;61481;-75
2021/09/06 05:53:52;;;;;;;4.50;2.80;;;;;;;9.00;96.96;101702.14;110648;1205;63099;-75
2021/09/06 05:56:20;;;;;;;3.10;2.20;;;;;;;9.03;96.99;101704.72;110585;1206;61099;-75
2021/09/06 05:58:47;;;;;;;5.30;2.50;;;;;;;9.05;97.05;101707.71;110438;1207;76346;-74
2021/09/06 06:01:14;;;;;;;3.60;2.50;;;;;;;9.06;96.98;101709.20;110468;1206;70985;-73
2021/09/06 06:03:41;;;;;;;5.60;3.70;;;;;;;9.08;97.29;101710.23;110829;1205;72224;-74
2021/09/06 06:06:08;;;;;;;4.70;3.10;;;;;;;9.14;97.57;101707.05;110598;1206;61770;-75
2021/09/06 06:08:34;;;;;;;5.60;3.30;;;;;;;9.23;97.35;101709.20;110693;1206;60999;-72
2021/09/06 06:11:01;;;;;;;5.70;4.10;;;;;;;9.31;97.44;101701.63;110607;1206;61215;-72
2021/09/06 06:13:28;;;;;;;5.50;3.20;;;;;;;9.39;97.33;101704.23;111166;1201;72493;-74
2021/09/06 06:15:54;;;;;;;6.00;3.70;;;;;;;9.48;97.08;101707.27;110690;1205;61055;-74
2021/09/06 06:18:30;;;;;;;5.80;3.60;;;;;;;9.57;97.01;101706.38;110688;1206;61760;-75
2021/09/06 06:20:56;;;;;;;9.30;4.40;;;;;;;9.66;96.49;101705.81;110727;1206;61099;-74
2021/09/06 06:23:23;;;;;;;5.20;3.20;;;;;;;9.74;96.25;101709.05;110777;1206;61088;-74
2021/09/06 06:25:50;;;;;;;3.90;2.60;;;;;;;9.81;96.05;101708.20;110785;1205;61050;-74
2021/09/06 06:28:16;;;;;;;4.30;2.80;;;;;;;9.88;95.98;101711.65;110715;1206;61030;-75
2021/09/06 06:30:43;;;;;;;4.80;2.80;;;;;;;9.95;95.80;101717.84;110577;1199;61093;-76
2021/09/06 06:33:09;;;;;;;7.50;4.20;;;;;;;10.04;95.93;101719.14;110458;1206;61087;-75
2021/09/06 06:35:38;;;;;;;7.00;3.60;;;;;;;10.14;95.67;101716.71;110676;1205;74097;-75
2021/09/06 06:38:05;;;;;;;5.80;3.60;;;;;;;10.23;95.28;101720.40;110745;1205;71995;-77
2021/09/06 06:40:32;;;;;;;4.60;2.90;;;;;;;10.28;94.63;101721.16;110500;1200;73905;-75
2021/09/06 06:42:58;;;;;;;10.50;4.90;;;;;;;10.34;94.55;101719.13;110559;1206;61809;-74
2021/09/06 06:45:25;;;;;;;5.00;3.40;;;;;;;10.46;94.57;101722.77;110696;1197;61078;-76
2021/09/06 06:47:51;;;;;;;14.20;7.60;;;;;;;10.54;94.39;101717.87;110693;1205;61109;-76
2021/09/06 06:50:18;;;;;;;5.60;3.70;;;;;;;10.66;94.32;101718.33;110548;1206;61085;-74
2021/09/06 06:52:44;;;;;;;6.80;4.60;;;;;;;10.70;93.68;101725.16;110700;1206;61073;-75
2021/09/06 06:55:11;;;;;;;10.80;6.10;;;;;;;10.78;94.02;101724.11;110763;1206;61113;-74
2021/09/06 06:57:37;;;;;;;6.20;3.80;;;;;;;10.86;93.44;101718.53;110859;1205;61596;-76
2021/09/06 07:00:05;;;;;;;5.10;3.40;;;;;;;10.92;93.32;101718.25;110651;1205;61202;-74
2021/09/06 07:02:32;;;;;;;6.10;4.20;;;;;;;10.99;93.37;101719.66;110646;1205;72098;-75
2021/09/06 07:05:04;;;;;;;5.60;3.10;;;;;;;11.08;93.49;101722.49;110542;1199;72527;-74
2021/09/06 07:07:32;;;;;;;7.30;5.20;;;;;;;11.17;93.75;101726.70;110675;1206;61600;-75
2021/09/06 07:09:59;;;;;;;7.20;4.50;;;;;;;11.31;94.12;101728.52;110519;1204;61078;-74
2021/09/06 07:12:25;;;;;;;5.90;3.60;;;;;;;11.46;93.79;101739.77;110561;1206;74680;-75
2021/09/06 07:14:53;;;;;;;7.80;4.70;;;;;;;11.57;93.15;101737.91;110694;1205;61207;-74
2021/09/06 07:17:20;;;;;;;8.30;4.90;;;;;;;11.71;92.98;101738.27;110589;1201;72689;-76
2021/09/06 07:19:46;;;;;;;8.90;5.30;;;;;;;11.86;92.45;101737.34;110814;1206;61474;-75
2021/09/06 07:22:15;;;;;;;6.40;3.30;;;;;;;11.98;91.82;101738.29;110855;1199;61045;-76
2021/09/06 07:24:42;;;;;;;7.00;4.80;;;;;;;12.03;91.08;101740.51;110729;1205;74609;-77
2021/09/06 07:27:09;;;;;;;7.40;5.10;;;;;;;12.11;90.69;101739.90;110819;1205;70939;-75
2021/09/06 07:29:39;;;;;;;10.40;4.90;;;;;;;12.20;90.97;101742.18;110510;1206;71851;-76
2021/09/06 07:32:06;;;;;;;7.40;5.00;;;;;;;12.30;90.71;101738.63;110664;1205;61541;-74
2021/09/06 07:34:35;;;;;;;9.90;5.90;;;;;;;12.44;90.27;101738.45;110682;1206;61021;-76
2021/09/06 07:37:03;;;;;;;10.30;5.60;;;;;;;12.60;90.23;101741.72;110700;1206;73305;-77
2021/09/06 07:39:30;;;;;;;8.70;5.60;;;;;;;12.75;90.26;101748.78;110637;1205;72055;-77
2021/09/06 07:41:57;;;;;;;11.50;7.10;;;;;;;12.88;89.85;101747.94;110652;1206;73554;-76
2021/09/06 07:44:24;;;;;;;8.90;6.00;;;;;;;13.00;89.90;101751.11;110634;1206;61104;-76
2021/09/06 07:46:53;;;;;;;6.00;4.10;;;;;;;13.16;89.27;101748.15;110540;1200;61124;-76
2021/09/06 07:49:20;;;;;;;8.70;5.80;;;;;;;13.30;88.70;101746.81;110685;1206;74685;-77
2021/09/06 07:51:53;;;;;;;8.00;4.70;;;;;;;13.41;88.57;101748.98;110688;1205;71956;-77
2021/09/06 07:54:20;;;;;;;8.60;4.50;;;;;;;13.49;87.91;101750.80;110756;1206;72670;-76
2021/09/06 07:56:48;;;;;;;9.00;5.20;;;;;;;13.56;87.57;101753.11;110618;1206;61744;-76
2021/09/06 07:59:16;;;;;;;15.30;7.20;;;;;;;13.63;87.53;101754.99;110819;1206;61095;-76
2021/09/06 08:01:46;;;;;;;8.00;4.90;;;;;;;13.68;86.96;101757.91;110759;1206;75676;-76
2021/09/06 08:04:14;;;;;;;10.90;5.90;;;;;;;13.75;86.92;101755.57;110659;1206;70947;-75
2021/09/06 08:06:41;;;;;;;14.10;6.40;;;;;;;13.83;87.08;101758.38;110861;1206;73509;-75
2021/09/06 08:09:08;;;;;;;12.00;7.20;;;;;;;13.97;87.24;101763.48;110698;1207;61854;-76
2021/09/06 08:11:34;;;;;;;12.20;7.00;;;;;;;14.11;87.12;101764.71;110711;1206;61076;-75
2021/09/06 08:14:01;;;;;;;12.00;7.80;;;;;;;14.26;86.86;101767.39;110840;1206;61013;-75
2021/09/06 08:16:28;;;;;;;15.60;9.40;;;;;;;14.40;86.42;101773.60;110815;1206;71031;-76
2021/09/06 08:18:54;;;;;;;13.20;8.40;;;;;;;14.56;85.98;101769.17;110764;1206;72593;-75
2021/09/06 08:21:21;;;;;;;26.00;12.60;;;;;;;14.68;85.50;101767.13;110638;1206;61440;-75
2021/09/06 08:23:47;;;;;;;16.10;10.60;;;;;;;14.79;85.47;101768.72;110674;1205;61061;-76
2021/09/06 08:26:14;;;;;;;18.60;8.60;;;;;;;14.90;85.48;101765.95;110654;1206;61110;-74
2021/09/06 08:28:41;;;;;;;17.10;8.90;;;;;;;14.95;84.69;101763.48;110773;1206;71151;-75
2021/09/06 08:31:07;;;;;;;9.30;4.60;;;;;;;14.95;84.68;101764.31;110778;1206;72613;-74
2021/09/06 08:33:34;;;;;;;15.80;8.70;;;;;;;14.90;84.32;101767.74;110468;1207;61918;-75
2021/09/06 08:36:01;;;;;;;19.80;11.50;;;;;;;14.83;84.54;101762.27;110602;1206;61409;-74
2021/09/06 08:38:32;;;;;;;19.40;11.20;;;;;;;14.91;85.23;101761.73;110784;1206;74561;-76
2021/09/06 08:40:59;;;;;;;23.60;11.10;;;;;;;15.01;85.28;101761.70;110696;1206;60988;-75
2021/09/06 08:43:27;;;;;;;22.40;12.40;;;;;;;15.12;85.36;101764.13;110692;1206;73538;-75
2021/09/06 08:45:53;;;;;;;18.70;10.90;;;;;;;15.22;85.85;101761.74;110804;1206;61201;-75
2021/09/06 08:48:20;;;;;;;23.90;12.40;;;;;;;15.36;85.68;101757.98;110744;1206;61066;-75
2021/09/06 08:50:48;;;;;;;14.10;7.20;;;;;;;15.52;85.82;101766.39;110617;1206;75404;-75
2021/09/06 08:53:14;;;;;;;22.40;11.90;;;;;;;15.69;85.05;101764.77;110656;1205;71876;-75
2021/09/06 08:55:41;;;;;;;27.20;15.40;;;;;;;15.85;84.72;101769.69;110761;1206;71822;-76
2021/09/06 08:58:28;;;;;;;20.10;10.80;;;;;;;16.05;84.67;101771.06;110677;1206;63535;-76
2021/09/06 09:00:57;;;;;;;32.50;16.40;;;;;;;16.20;83.32;101776.18;110747;1206;61113;-74
2021/09/06 09:03:24;;;;;;;30.30;16.80;;;;;;;16.33;83.44;101777.64;110941;1207;74232;-73
2021/09/06 09:06:05;;;;;;;27.90;14.70;;;;;;;16.52;82.97;101780.52;110761;1206;72270;-74
2021/09/06 09:08:33;;;;;;;22.50;13.00;;;;;;;16.72;82.30;101780.40;110686;1207;73890;-74
2021/09/06 09:11:05;;;;;;;28.70;15.00;;;;;;;16.87;81.66;101778.78;110749;1206;61774;-75
2021/09/06 09:13:37;;;;;;;30.50;16.10;;;;;;;17.00;81.23;101778.72;110816;1206;61070;-74
2021/09/06 09:16:06;;;;;;;30.80;15.50;;;;;;;17.18;81.36;101780.28;110716;1206;75939;-76
2021/09/06 09:18:34;;;;;;;20.90;10.80;;;;;;;17.37;80.36;101779.71;110970;1206;71416;-76
2021/09/06 09:21:06;;;;;;;32.40;17.60;;;;;;;17.48;78.72;101780.63;110927;1207;73656;-76
2021/09/06 09:23:39;;;;;;;33.90;17.20;;;;;;;17.60;78.42;101782.34;110839;1204;62289;-75
2021/09/06 09:26:05;;;;;;;27.20;16.40;;;;;;;17.73;77.43;101788.86;110922;1206;60974;-75
2021/09/06 09:28:37;;;;;;;28.70;16.60;;;;;;;17.87;77.65;101785.77;110857;1206;75557;-75
2021/09/06 09:31:08;;;;;;;26.30;14.00;;;;;;;18.02;76.90;101782.86;110864;1206;71306;-76
2021/09/06 09:33:53;;;;;;;24.70;13.70;;;;;;;18.16;75.74;101785.40;110657;1201;72506;-75
2021/09/06 09:36:31;;;;;;;28.00;16.30;;;;;;;18.29;75.88;101787.58;110483;1204;61737;-74
2021/09/06 09:39:15;;;;;;;22.30;11.70;;;;;;;18.52;75.28;101783.67;110549;1207;61117;-75
2021/09/06 09:41:44;;;;;;;22.10;13.10;;;;;;;18.71;73.82;101779.96;110603;1205;74563;-75
2021/09/06 09:44:22;;;;;;;19.00;13.00;;;;;;;18.84;72.41;101780.45;110845;1206;70960;-74
2021/09/06 09:46:56;;;;;;;20.40;12.00;;;;;;;18.91;71.20;101776.61;110638;1206;73737;-74
2021/09/06 09:49:24;;;;;;;22.80;13.60;;;;;;;19.01;70.40;101774.85;110522;1206;61156;-75
2021/09/06 09:51:51;;;;;;;26.30;13.10;;;;;;;19.13;70.77;101775.15;110604;1206;61077;-76
2021/09/06 09:54:18;;;;;;;18.40;11.90;;;;;;;19.26;68.81;101776.33;110668;1207;73538;-77
2021/09/06 09:56:46;;;;;;;21.50;12.10;;;;;;;19.41;69.66;101773.11;110709;1206;70847;-74
2021/09/06 09:59:13;;;;;;;17.20;10.40;;;;;;;19.63;70.14;101765.94;110894;1203;72516;-74
2021/09/06 10:01:59;;;;;;;24.00;12.50;;;;;;;19.84;69.17;101762.89;110914;1206;61722;-74
2021/09/06 10:04:31;;;;;;;21.30;12.40;;;;;;;20.08;68.16;101761.92;110628;1205;61018;-75
2021/09/06 10:06:59;;;;;;;25.70;14.20;;;;;;;20.31;68.32;101760.17;110590;1207;73955;-74
2021/09/06 10:09:27;;;;;;;17.90;11.00;;;;;;;20.58;67.37;101761.65;110879;1205;71430;-75
2021/09/06 10:12:05;;;;;;;19.90;12.50;;;;;;;20.77;64.86;101763.39;110558;1206;72546;-75
2021/09/06 10:14:32;;;;;;;16.70;10.50;;;;;;;20.97;63.45;101760.89;110821;1207;61269;-74
2021/09/06 10:17:07;;;;;;;22.70;9.30;;;;;;;21.11;61.07;101759.95;110705;1206;61081;-74
2021/09/06 10:19:43;;;;;;;23.10;12.40;;;;;;;21.23;58.78;101754.85;110507;1207;74524;-75
2021/09/06 10:22:24;;;;;;;14.90;8.70;;;;;;;21.33;58.57;101753.98;110680;1198;71066;-74
2021/09/06 10:24:55;;;;;;;11.70;7.90;;;;;;;21.46;55.11;101749.94;110706;1206;72083;-75
2021/09/06 10:27:22;;;;;;;16.70;9.40;;;;;;;21.51;54.20;101744.54;110831;1206;61082;-74
2021/09/06 10:30:04;;;;;;;16.40;8.80;;;;;;;21.62;54.55;101743.02;110771;1206;60996;-75
2021/09/06 10:32:47;;;;;;;19.90;11.60;;;;;;;21.66;55.14;101741.28;110608;1206;74589;-75
2021/09/06 10:35:14;;;;;;;16.10;8.90;;;;;;;21.73;56.26;101739.11;110656;1206;71693;-75
2021/09/06 10:37:42;;;;;;;12.30;8.40;;;;;;;21.66;54.16;101735.17;110564;1199;61077;-74
2021/09/06 10:40:34;;;;;;;19.70;11.60;;;;;;;21.51;54.74;101733.19;110651;1207;61085;-76
2021/09/06 10:43:15;;;;;;;13.20;9.00;;;;;;;21.44;54.90;101736.13;110623;1206;61469;-76
2021/09/06 10:45:44;;;;;;;12.80;8.70;;;;;;;21.42;55.14;101738.43;110673;1207;74561;-76
2021/09/06 10:48:27;;;;;;;14.30;9.50;;;;;;;21.49;54.50;101745.92;110636;1206;70934;-76
2021/09/06 10:50:55;;;;;;;15.50;8.70;;;;;;;21.66;54.94;101743.39;110789;1207;72347;-76
2021/09/06 10:53:23;;;;;;;16.20;8.00;;;;;;;21.88;53.59;101745.45;110766;1207;61356;-76
2021/09/06 10:55:52;;;;;;;13.70;6.90;;;;;;;22.07;53.88;101748.48;110669;1206;61794;-75
2021/09/06 10:58:21;;;;;;;11.80;7.30;;;;;;;22.22;53.02;101742.86;110763;1206;74699;-75
2021/09/06 11:00:50;;;;;;;12.60;6.50;;;;;;;22.35;53.44;101742.92;110644;1206;72709;-76
2021/09/06 11:03:17;;;;;;;16.70;7.80;;;;;;;22.48;53.40;101742.09;111034;1206;72457;-76
2021/09/06 11:05:55;;;;;;;13.40;7.80;;;;;;;22.59;54.13;101738.28;110491;1207;61088;-76
2021/09/06 11:08:27;;;;;;;21.80;10.70;;;;;;;22.76;53.63;101730.17;110841;1207;61017;-76
2021/09/06 11:10:56;;;;;;;26.10;12.60;;;;;;;22.85;50.90;101726.66;110609;1207;75599;-77
2021/09/06 11:13:32;;;;;;;23.90;9.50;;;;;;;22.90;51.25;101720.84;110812;1206;70969;-77
2021/09/06 11:16:00;;;;;;;18.10;9.00;;;;;;;23.00;50.87;101726.36;110864;1198;72120;-76
2021/09/06 11:18:35;;;;;;;14.60;8.20;;;;;;;23.04;49.77;101723.98;110728;1206;61097;-76
2021/09/06 11:21:03;;;;;;;17.30;8.10;;;;;;;23.08;49.92;101726.37;110517;1202;61104;-77